createdAt,value
2019-03-26T00:00:46.438Z,28.55
2019-03-26T00:03:14.862Z,16.30
2019-03-26T00:05:43.384Z,19.12
2019-03-26T00:08:11.826Z,14.25
2019-03-26T00:10:40.284Z,19.35
2019-03-26T00:13:08.732Z,23.52
2019-03-26T00:15:37.221Z,17.02
2019-03-26T00:18:05.660Z,21.52
2019-03-26T00:20:35.294Z,21.48
2019-03-26T00:23:04.904Z,20.48
2019-03-26T00:25:33.353Z,28.35
2019-03-26T00:28:01.789Z,21.73
2019-03-26T00:30:30.214Z,25.00
2019-03-26T00:32:58.675Z,22.65
2019-03-26T00:35:27.186Z,25.45
2019-03-26T00:37:55.621Z,20.75
2019-03-26T00:40:24.070Z,17.87
2019-03-26T00:42:52.517Z,21.40
2019-03-26T00:45:20.946Z,27.05
2019-03-26T00:47:49.377Z,22.07
2019-03-26T00:50:17.887Z,20.08
2019-03-26T00:52:46.317Z,24.15
2019-03-26T00:55:22.479Z,20.65
2019-03-26T00:57:44.909Z,21.73
2019-03-26T01:00:13.953Z,24.92
2019-03-26T01:03:01.726Z,23.27
2019-03-26T01:05:30.240Z,22.52
2019-03-26T01:07:59.594Z,18.37
2019-03-26T01:10:28.242Z,18.10
2019-03-26T01:12:56.722Z,18.23
2019-03-26T01:15:25.158Z,18.73
2019-03-26T01:17:53.581Z,21.77
2019-03-26T01:20:22.037Z,21.23
2019-03-26T01:22:50.494Z,22.85
2019-03-26T01:25:18.933Z,26.33
2019-03-26T01:27:47.392Z,27.87
2019-03-26T01:30:15.810Z,23.47
2019-03-26T01:32:44.813Z,21.23
2019-03-26T01:35:13.309Z,21.37
2019-03-26T01:37:41.736Z,24.43
2019-03-26T01:40:10.309Z,24.50
2019-03-26T01:42:38.739Z,28.35
2019-03-26T01:45:10.240Z,29.70
2019-03-26T01:47:38.662Z,32.30
2019-03-26T01:50:07.289Z,24.95
2019-03-26T01:52:35.738Z,23.73
2019-03-26T01:55:06.005Z,26.68
2019-03-26T01:57:34.461Z,28.87
2019-03-26T02:00:03.672Z,29.48
2019-03-26T02:02:32.118Z,28.05
2019-03-26T02:05:00.931Z,27.35
2019-03-26T02:07:29.447Z,29.65
2019-03-26T02:09:57.884Z,24.57
2019-03-26T02:12:26.322Z,24.47
2019-03-26T02:14:54.766Z,30.90
2019-03-26T02:17:23.208Z,24.87
2019-03-26T02:19:51.647Z,34.45
2019-03-26T02:22:20.074Z,31.80
2019-03-26T02:24:48.497Z,27.00
2019-03-26T02:27:17.000Z,26.02
2019-03-26T02:29:45.421Z,29.63
2019-03-26T02:32:13.961Z,28.27
2019-03-26T02:34:42.375Z,30.90
2019-03-26T02:37:10.818Z,26.02
2019-03-26T02:39:39.251Z,25.32
2019-03-26T02:42:07.680Z,25.95
2019-03-26T02:44:36.120Z,37.78
2019-03-26T02:47:04.570Z,35.90
2019-03-26T02:49:33.023Z,36.38
2019-03-26T02:52:02.538Z,29.42
2019-03-26T02:54:31.549Z,36.68
2019-03-26T02:56:59.979Z,32.17
2019-03-26T02:59:28.419Z,26.02
2019-03-26T03:01:56.861Z,33.42
2019-03-26T03:04:25.388Z,30.35
2019-03-26T03:06:54.001Z,30.72
2019-03-26T03:09:22.427Z,31.45
2019-03-26T03:11:50.851Z,35.40
2019-03-26T03:14:19.301Z,29.70
2019-03-26T03:16:47.723Z,34.65
2019-03-26T03:19:16.472Z,35.52
2019-03-26T03:21:44.978Z,33.78
2019-03-26T03:24:13.409Z,36.93
2019-03-26T03:26:41.880Z,28.87
2019-03-26T03:29:10.361Z,29.12
2019-03-26T03:31:38.795Z,37.45
2019-03-26T03:34:07.364Z,23.87
2019-03-26T03:36:35.818Z,26.33
2019-03-26T03:39:06.642Z,32.38
2019-03-26T03:41:35.123Z,28.25
2019-03-26T03:44:03.719Z,27.40
2019-03-26T03:46:32.283Z,24.47
2019-03-26T03:49:01.551Z,32.98
2019-03-26T03:51:49.694Z,25.05
2019-03-26T03:54:18.758Z,18.77
2019-03-26T03:56:51.319Z,27.35
2019-03-26T03:59:20.675Z,25.20
2019-03-26T04:01:49.483Z,27.45
2019-03-26T04:04:17.966Z,28.27
2019-03-26T04:06:46.428Z,30.12
2019-03-26T04:09:14.868Z,24.12
2019-03-26T04:11:43.324Z,31.17
2019-03-26T04:14:11.749Z,24.07
2019-03-26T04:16:40.208Z,33.65
2019-03-26T04:19:10.741Z,22.25
2019-03-26T04:21:39.168Z,26.37
2019-03-26T04:24:07.633Z,25.12
2019-03-26T04:26:36.077Z,18.85
2019-03-26T04:29:04.581Z,15.63
2019-03-26T04:31:33.107Z,21.50
2019-03-26T04:34:01.605Z,21.85
2019-03-26T04:36:37.013Z,25.40
2019-03-26T04:39:07.454Z,28.65
2019-03-26T04:41:36.595Z,29.02
2019-03-26T04:44:05.102Z,28.27
2019-03-26T04:46:33.539Z,18.60
2019-03-26T04:49:01.974Z,24.77
2019-03-26T04:51:30.425Z,24.50
2019-03-26T04:53:58.945Z,26.30
2019-03-26T04:56:27.381Z,21.65
2019-03-26T04:58:55.810Z,25.82
2019-03-26T05:01:24.246Z,19.07
2019-03-26T05:03:52.702Z,19.95
2019-03-26T05:06:21.209Z,25.68
2019-03-26T05:08:49.649Z,17.80
2019-03-26T05:11:18.096Z,23.95
2019-03-26T05:13:53.356Z,17.42
2019-03-26T05:16:21.815Z,17.87
2019-03-26T05:18:50.302Z,18.25
2019-03-26T05:21:18.740Z,17.77
2019-03-26T05:23:47.275Z,16.10
2019-03-26T05:26:15.697Z,12.90
2019-03-26T05:28:44.153Z,10.90
2019-03-26T05:31:12.583Z,14.68
2019-03-26T05:33:41.019Z,12.85
2019-03-26T05:36:09.488Z,12.95
2019-03-26T05:38:42.562Z,15.60
2019-03-26T05:41:10.987Z,13.53
2019-03-26T05:43:39.412Z,17.42
2019-03-26T05:46:07.839Z,16.42
2019-03-26T05:48:36.305Z,14.18
2019-03-26T05:51:04.796Z,19.62
2019-03-26T05:53:33.237Z,18.77
2019-03-26T05:56:01.671Z,13.72
2019-03-26T05:58:30.117Z,14.05
2019-03-26T06:00:58.671Z,15.53
2019-03-26T06:03:27.185Z,15.80
2019-03-26T06:05:55.637Z,16.17
2019-03-26T06:08:24.102Z,13.32
2019-03-26T06:10:52.538Z,16.75
2019-03-26T06:13:20.989Z,14.07
2019-03-26T06:15:49.548Z,14.75
2019-03-26T06:18:18.020Z,14.83
2019-03-26T06:20:46.536Z,16.97
2019-03-26T06:23:15.039Z,16.07
2019-03-26T06:25:43.554Z,17.77
2019-03-26T06:28:11.995Z,19.75
2019-03-26T06:30:40.421Z,16.02
2019-03-26T06:33:08.866Z,16.02
2019-03-26T06:35:37.293Z,14.10
2019-03-26T06:38:05.734Z,16.82
2019-03-26T06:40:34.162Z,16.35
2019-03-26T06:43:02.604Z,20.88
2019-03-26T06:45:50.383Z,16.52
2019-03-26T06:48:18.816Z,16.67
2019-03-26T06:50:47.268Z,15.35
2019-03-26T06:53:15.712Z,19.57
2019-03-26T06:55:44.169Z,15.88
2019-03-26T06:58:12.604Z,16.42
2019-03-26T07:00:41.405Z,14.60
2019-03-26T07:03:09.853Z,17.20
2019-03-26T07:05:38.333Z,16.57
2019-03-26T07:08:06.792Z,19.35
2019-03-26T07:10:35.228Z,19.17
2019-03-26T07:13:03.725Z,14.07
2019-03-26T07:15:32.172Z,17.07
2019-03-26T07:18:00.676Z,21.50
2019-03-26T07:20:29.096Z,16.85
2019-03-26T07:22:57.548Z,18.35
2019-03-26T07:25:25.974Z,17.65
2019-03-26T07:27:54.466Z,14.78
2019-03-26T07:30:36.954Z,21.25
2019-03-26T07:33:05.446Z,19.25
2019-03-26T07:35:33.961Z,17.48
2019-03-26T07:38:02.390Z,19.55
2019-03-26T07:40:30.814Z,15.65
2019-03-26T07:42:59.249Z,17.45
2019-03-26T07:45:27.679Z,20.15
2019-03-26T07:47:56.175Z,19.50
2019-03-26T07:50:24.688Z,17.75
2019-03-26T07:52:53.134Z,15.32
2019-03-26T07:55:21.546Z,15.25
2019-03-26T07:57:49.967Z,18.98
2019-03-26T08:00:21.467Z,15.68
2019-03-26T08:02:49.886Z,19.07
2019-03-26T08:05:29.225Z,16.10
2019-03-26T08:07:58.303Z,12.28
2019-03-26T08:10:18.721Z,18.32
2019-03-26T08:12:47.147Z,16.05
2019-03-26T08:15:15.646Z,17.52
2019-03-26T08:17:45.489Z,18.02
2019-03-26T08:20:14.057Z,16.65
2019-03-26T08:22:42.493Z,21.25
2019-03-26T08:25:11.128Z,17.95
2019-03-26T08:27:39.581Z,12.05
2019-03-26T08:30:08.354Z,14.50
2019-03-26T08:32:37.227Z,18.62
2019-03-26T08:35:05.960Z,12.18
2019-03-26T08:37:36.484Z,16.45
2019-03-26T08:40:28.840Z,16.48
2019-03-26T08:42:57.580Z,13.95
2019-03-26T08:45:26.037Z,16.00
2019-03-26T08:47:54.458Z,17.90
2019-03-26T08:50:22.893Z,16.55
2019-03-26T08:52:51.335Z,17.07
2019-03-26T08:55:19.764Z,16.00
2019-03-26T08:57:48.278Z,17.17
2019-03-26T09:00:16.941Z,18.75
2019-03-26T09:02:45.376Z,21.25
2019-03-26T09:05:14.066Z,16.65
2019-03-26T09:07:42.490Z,14.30
2019-03-26T09:10:11.573Z,12.68
2019-03-26T09:12:40.033Z,13.20
2019-03-26T09:15:10.448Z,9.58
2019-03-26T09:17:40.141Z,12.63
2019-03-26T09:20:09.818Z,12.37
2019-03-26T09:22:38.302Z,10.43
2019-03-26T09:25:07.381Z,8.08
2019-03-26T09:27:35.893Z,7.80
2019-03-26T09:30:09.839Z,16.55
2019-03-26T09:32:39.141Z,10.53
2019-03-26T09:35:08.723Z,12.43
2019-03-26T09:37:37.165Z,12.28
2019-03-26T09:40:26.465Z,7.95
2019-03-26T09:42:54.905Z,11.73
2019-03-26T09:45:23.353Z,11.83
2019-03-26T09:47:51.770Z,10.85
2019-03-26T09:50:31.678Z,5.17
2019-03-26T09:53:00.121Z,13.45
2019-03-26T09:55:28.578Z,8.48
2019-03-26T09:57:57.016Z,8.48
2019-03-26T10:00:25.472Z,8.00
2019-03-26T10:02:53.954Z,13.80
2019-03-26T10:05:22.392Z,12.35
2019-03-26T10:07:50.827Z,12.35
2019-03-26T10:10:19.704Z,8.18
2019-03-26T10:12:48.465Z,14.90
2019-03-26T10:15:16.981Z,9.53
2019-03-26T10:17:45.577Z,11.18
2019-03-26T10:20:14.330Z,14.20
2019-03-26T10:22:42.755Z,12.53
2019-03-26T10:25:11.634Z,11.75
2019-03-26T10:27:40.297Z,9.45
2019-03-26T10:30:11.490Z,14.98
2019-03-26T10:32:40.306Z,11.20
2019-03-26T10:35:08.982Z,13.55
2019-03-26T10:37:37.408Z,11.88
2019-03-26T10:40:07.386Z,12.07
2019-03-26T10:42:35.841Z,11.80
2019-03-26T10:45:06.428Z,10.80
2019-03-26T10:47:35.023Z,12.43
2019-03-26T10:50:06.010Z,8.10
2019-03-26T10:52:34.661Z,12.47
2019-03-26T10:55:03.920Z,11.88
2019-03-26T10:57:32.384Z,13.03
2019-03-26T11:00:00.935Z,7.47
2019-03-26T11:02:29.437Z,8.03
2019-03-26T11:05:00.974Z,12.43
2019-03-26T11:07:32.893Z,7.47
2019-03-26T11:10:03.646Z,8.05
2019-03-26T11:12:33.068Z,8.48
2019-03-26T11:15:01.590Z,8.00
2019-03-26T11:17:30.092Z,10.93
2019-03-26T11:19:58.593Z,12.25
2019-03-26T11:22:27.188Z,6.70
2019-03-26T11:24:55.609Z,6.25
2019-03-26T11:27:24.049Z,12.35
2019-03-26T11:29:53.531Z,6.12
2019-03-26T11:32:21.969Z,7.33
2019-03-26T11:34:50.406Z,6.25
2019-03-26T11:37:18.924Z,8.88
2019-03-26T11:39:55.152Z,6.92
2019-03-26T11:42:23.663Z,6.78
2019-03-26T11:44:52.138Z,7.60
2019-03-26T11:47:20.578Z,7.58
2019-03-26T11:49:49.006Z,6.17
2019-03-26T11:52:17.481Z,6.17
2019-03-26T11:54:50.301Z,12.13
2019-03-26T11:57:21.505Z,10.80
2019-03-26T11:59:54.371Z,8.00
2019-03-26T12:02:24.644Z,6.45
2019-03-26T12:04:56.539Z,7.47
2019-03-26T12:07:25.079Z,6.53
2019-03-26T12:09:53.582Z,9.38
2019-03-26T12:12:22.026Z,5.45
2019-03-26T12:14:51.450Z,6.62
2019-03-26T12:17:19.885Z,5.83
2019-03-26T12:19:48.306Z,5.22
2019-03-26T12:22:16.757Z,2.58
2019-03-26T12:24:45.194Z,3.27
2019-03-26T12:27:13.642Z,3.70
2019-03-26T12:29:42.216Z,5.72
2019-03-26T12:32:10.678Z,2.60
2019-03-26T12:34:39.165Z,2.58
2019-03-26T12:37:07.670Z,5.17
2019-03-26T12:39:36.105Z,5.05
2019-03-26T12:42:04.615Z,9.88
2019-03-26T12:44:33.039Z,5.45
2019-03-26T12:47:01.491Z,6.12
2019-03-26T12:49:31.207Z,7.00
2019-03-26T12:51:59.660Z,7.35
2019-03-26T12:54:28.101Z,7.25
2019-03-26T12:56:56.623Z,4.65
2019-03-26T12:59:26.668Z,7.47
2019-03-26T13:01:59.053Z,5.67
2019-03-26T13:04:27.664Z,6.03
2019-03-26T13:06:56.133Z,5.80
2019-03-26T13:09:24.563Z,6.05
2019-03-26T13:11:53.029Z,7.20
2019-03-26T13:14:21.450Z,5.08
2019-03-26T13:16:49.901Z,8.78
2019-03-26T13:19:18.315Z,4.60
2019-03-26T13:21:46.773Z,3.08
2019-03-26T13:24:15.261Z,4.78
2019-03-26T13:26:43.779Z,8.53
2019-03-26T13:29:12.250Z,8.95
2019-03-26T13:31:40.679Z,8.23
2019-03-26T13:34:09.195Z,9.48
2019-03-26T13:36:38.491Z,8.53
2019-03-26T13:39:08.577Z,10.10
2019-03-26T13:41:37.153Z,11.70
2019-03-26T13:44:05.605Z,7.67
2019-03-26T13:46:34.019Z,10.18
2019-03-26T13:49:02.469Z,6.12
2019-03-26T13:51:30.910Z,7.00
2019-03-26T13:53:59.331Z,9.18
2019-03-26T13:56:27.805Z,10.15
2019-03-26T13:58:56.238Z,7.10
2019-03-26T14:01:24.713Z,8.65
2019-03-26T14:03:53.158Z,9.13
2019-03-26T14:06:21.570Z,7.40
2019-03-26T14:08:50.029Z,10.82
2019-03-26T14:11:18.458Z,7.72
2019-03-26T14:13:46.926Z,7.85
2019-03-26T14:16:15.359Z,7.85
2019-03-26T14:18:43.798Z,7.80
2019-03-26T14:21:12.269Z,9.70
2019-03-26T14:23:40.678Z,7.90
2019-03-26T14:26:09.205Z,11.33
2019-03-26T14:28:37.664Z,11.18
2019-03-26T14:31:06.106Z,6.65
2019-03-26T14:33:34.567Z,4.85
2019-03-26T14:36:02.987Z,6.67
2019-03-26T14:38:31.509Z,5.10
2019-03-26T14:40:59.947Z,13.93
2019-03-26T14:43:28.391Z,12.15
2019-03-26T14:45:56.816Z,8.08
2019-03-26T14:48:25.255Z,11.22
2019-03-26T14:50:53.699Z,9.13
2019-03-26T14:53:22.134Z,14.03
2019-03-26T14:55:50.682Z,9.18
2019-03-26T14:58:19.150Z,9.63
2019-03-26T15:00:47.598Z,11.00
2019-03-26T15:03:16.119Z,13.38
2019-03-26T15:05:44.565Z,10.00
2019-03-26T15:08:13.073Z,7.87
2019-03-26T15:10:42.429Z,7.47
2019-03-26T15:13:10.864Z,6.28
2019-03-26T15:15:39.293Z,8.13
2019-03-26T15:18:07.723Z,4.62
2019-03-26T15:20:36.275Z,5.12
2019-03-26T15:23:04.966Z,6.22
2019-03-26T15:25:33.395Z,5.50
2019-03-26T15:28:01.829Z,6.53
2019-03-26T15:30:30.349Z,5.28
2019-03-26T15:32:58.776Z,5.17
2019-03-26T15:35:27.194Z,3.33
2019-03-26T15:38:16.481Z,2.95
2019-03-26T15:40:44.989Z,4.30
2019-03-26T15:43:13.451Z,2.92
2019-03-26T15:45:41.955Z,4.53
2019-03-26T15:48:10.389Z,3.10
2019-03-26T15:50:59.666Z,2.75
2019-03-26T15:53:28.104Z,2.85
2019-03-26T15:55:56.557Z,5.10
2019-03-26T15:58:24.980Z,2.37
2019-03-26T16:00:53.421Z,0.80
2019-03-26T16:03:22.622Z,4.60
2019-03-26T16:05:51.114Z,2.77
2019-03-26T16:08:19.572Z,2.40
2019-03-26T16:10:47.987Z,2.95
2019-03-26T16:13:16.430Z,1.90
2019-03-26T16:15:45.289Z,3.40
2019-03-26T16:18:13.936Z,1.67
2019-03-26T16:20:42.385Z,3.87
2019-03-26T16:23:10.803Z,4.22
2019-03-26T16:25:39.248Z,3.37
2019-03-26T16:28:07.749Z,4.35
2019-03-26T16:30:36.184Z,2.30
2019-03-26T16:33:04.764Z,2.58
2019-03-26T16:35:33.178Z,3.50
2019-03-26T16:38:01.614Z,3.05
2019-03-26T16:40:30.053Z,2.72
2019-03-26T16:42:58.470Z,2.83
2019-03-26T16:45:26.970Z,4.70
2019-03-26T16:47:55.503Z,3.67
2019-03-26T16:50:23.971Z,4.85
2019-03-26T16:52:52.477Z,4.22
2019-03-26T16:55:20.921Z,5.28
2019-03-26T16:57:49.415Z,3.92
2019-03-26T17:00:20.925Z,3.80
2019-03-26T17:02:49.423Z,4.85
2019-03-26T17:05:20.941Z,3.85
2019-03-26T17:07:49.384Z,4.83
2019-03-26T17:10:17.888Z,5.05
2019-03-26T17:12:46.326Z,3.52
2019-03-26T17:15:14.823Z,4.17
2019-03-26T17:17:43.284Z,4.30
2019-03-26T17:20:11.862Z,6.28
2019-03-26T17:22:40.301Z,5.22
2019-03-26T17:25:09.376Z,4.17
2019-03-26T17:27:37.813Z,5.08
2019-03-26T17:30:06.867Z,4.85
2019-03-26T17:32:35.323Z,4.55
2019-03-26T17:35:04.693Z,3.27
2019-03-26T17:37:33.110Z,4.30
2019-03-26T17:40:02.124Z,3.92
2019-03-26T17:42:30.564Z,3.62
2019-03-26T17:44:59.008Z,3.58
2019-03-26T17:47:27.423Z,3.92
2019-03-26T17:49:55.849Z,2.98
2019-03-26T17:52:24.269Z,2.52
2019-03-26T17:54:52.725Z,2.50
2019-03-26T17:57:21.160Z,3.65
2019-03-26T17:59:49.579Z,2.50
2019-03-26T18:02:18.024Z,4.62
2019-03-26T18:04:46.533Z,3.62
2019-03-26T18:07:14.985Z,4.10
2019-03-26T18:09:43.417Z,7.83
2019-03-26T18:12:11.846Z,4.30
2019-03-26T18:14:40.285Z,4.42
2019-03-26T18:17:08.720Z,4.35
2019-03-26T18:19:37.164Z,5.10
2019-03-26T18:22:05.738Z,4.90
2019-03-26T18:24:34.161Z,7.47
2019-03-26T18:27:02.584Z,6.33
2019-03-26T18:29:31.009Z,6.87
2019-03-26T18:31:59.494Z,8.10
2019-03-26T18:34:27.969Z,9.03
2019-03-26T18:36:56.413Z,12.00
2019-03-26T18:39:24.849Z,9.88
2019-03-26T18:41:53.292Z,12.93
2019-03-26T18:44:21.706Z,9.45
2019-03-26T18:46:50.156Z,17.60
2019-03-26T18:49:18.624Z,12.70
2019-03-26T18:51:47.042Z,15.28
2019-03-26T18:54:15.843Z,18.57
2019-03-26T18:57:03.628Z,12.35
2019-03-26T18:59:32.149Z,15.48
2019-03-26T19:02:00.570Z,17.55
2019-03-26T19:04:29.028Z,15.08
2019-03-26T19:06:57.466Z,14.63
2019-03-26T19:09:25.920Z,17.62
2019-03-26T19:11:54.350Z,13.62
2019-03-26T19:14:22.782Z,11.45
2019-03-26T19:16:51.216Z,10.78
2019-03-26T19:19:19.654Z,17.87
2019-03-26T19:21:48.190Z,16.67
2019-03-26T19:24:16.627Z,19.62
2019-03-26T19:26:45.058Z,21.42
2019-03-26T19:29:13.612Z,20.75
2019-03-26T19:31:42.066Z,24.15
2019-03-26T19:34:10.521Z,27.73
2019-03-26T19:36:38.958Z,28.40
2019-03-26T19:39:07.722Z,25.60
2019-03-26T19:41:36.242Z,25.30
2019-03-26T19:44:16.933Z,30.15
2019-03-26T19:46:45.385Z,29.82
2019-03-26T19:49:13.826Z,25.08
2019-03-26T19:51:42.276Z,26.40
2019-03-26T19:54:10.722Z,30.00
2019-03-26T19:56:39.790Z,33.55
2019-03-26T19:59:08.400Z,28.70
2019-03-26T20:01:36.824Z,33.95
2019-03-26T20:04:05.285Z,24.43
2019-03-26T20:06:33.703Z,25.68
2019-03-26T20:09:02.131Z,29.35
2019-03-26T20:11:30.581Z,30.40
2019-03-26T20:13:59.028Z,28.62
2019-03-26T20:16:36.533Z,29.12
2019-03-26T20:18:57.614Z,32.98
2019-03-26T20:21:26.062Z,30.97
2019-03-26T20:23:54.479Z,28.75
2019-03-26T20:26:22.920Z,33.53
2019-03-26T20:28:51.366Z,28.35
2019-03-26T20:31:19.861Z,30.77
2019-03-26T20:33:48.314Z,32.73
2019-03-26T20:36:16.765Z,26.48
2019-03-26T20:38:45.194Z,34.00
2019-03-26T20:41:13.650Z,33.92
2019-03-26T20:43:42.156Z,32.13
2019-03-26T20:46:10.597Z,34.73
2019-03-26T20:48:39.019Z,29.87
2019-03-26T20:51:07.468Z,31.15
2019-03-26T20:53:35.898Z,32.08
2019-03-26T20:56:04.348Z,33.10
2019-03-26T20:58:33.333Z,30.95
2019-03-26T21:01:01.784Z,31.10
2019-03-26T21:03:30.274Z,30.85
2019-03-26T21:05:58.745Z,34.08
2019-03-26T21:08:27.167Z,24.63
2019-03-26T21:10:55.612Z,34.55
2019-03-26T21:13:24.125Z,31.25
2019-03-26T21:15:57.376Z,31.68
2019-03-26T21:18:22.741Z,32.05
2019-03-26T21:20:51.612Z,33.60
2019-03-26T21:23:20.085Z,37.55
2019-03-26T21:25:48.614Z,34.95
2019-03-26T21:28:17.108Z,32.08
2019-03-26T21:30:45.549Z,27.62
2019-03-26T21:33:13.971Z,29.23
2019-03-26T21:35:42.411Z,26.70
2019-03-26T21:38:10.854Z,29.42
2019-03-26T21:40:39.448Z,24.65
2019-03-26T21:43:07.889Z,29.10
2019-03-26T21:45:38.073Z,24.05
2019-03-26T21:48:07.343Z,31.65
2019-03-26T21:50:35.915Z,29.57
2019-03-26T21:53:05.102Z,31.37
2019-03-26T21:55:33.592Z,29.90
2019-03-26T21:58:02.029Z,22.30
2019-03-26T22:00:30.476Z,28.67
2019-03-26T22:02:58.923Z,27.82
2019-03-26T22:05:27.361Z,28.80
2019-03-26T22:07:55.801Z,30.52
2019-03-26T22:10:24.245Z,24.32
2019-03-26T22:12:52.666Z,29.25
2019-03-26T22:15:21.102Z,31.30
2019-03-26T22:17:49.529Z,30.37
2019-03-26T22:20:17.959Z,31.07
2019-03-26T22:22:46.460Z,21.87
2019-03-26T22:25:15.043Z,27.10
2019-03-26T22:27:43.497Z,34.50
2019-03-26T22:30:12.575Z,29.45
2019-03-26T22:32:41.027Z,23.10
2019-03-26T22:35:09.596Z,32.10
2019-03-26T22:37:38.022Z,28.40
2019-03-26T22:40:08.064Z,31.82
2019-03-26T22:42:36.559Z,29.95
2019-03-26T22:45:28.874Z,24.80
2019-03-26T22:47:57.292Z,23.60
2019-03-26T22:50:25.749Z,28.70
2019-03-26T22:52:54.195Z,24.30
2019-03-26T22:55:22.637Z,24.12
2019-03-26T22:57:51.066Z,27.55
2019-03-26T23:00:21.112Z,26.35
2019-03-26T23:02:49.565Z,27.13
2019-03-26T23:05:18.219Z,21.45
2019-03-26T23:07:46.741Z,22.40
2019-03-26T23:10:15.815Z,29.57
2019-03-26T23:12:44.242Z,19.80
2019-03-26T23:15:22.027Z,26.77
2019-03-26T23:17:50.545Z,33.20
2019-03-26T23:20:19.198Z,23.45
2019-03-26T23:22:47.630Z,20.15
2019-03-26T23:25:16.436Z,21.35
2019-03-26T23:27:44.880Z,23.77
2019-03-26T23:30:15.264Z,22.55
2019-03-26T23:32:43.706Z,24.92
2019-03-26T23:35:12.300Z,17.02
2019-03-26T23:37:40.787Z,25.75
2019-03-26T23:40:09.668Z,20.02
2019-03-26T23:42:38.184Z,25.43
2019-03-26T23:45:08.234Z,20.97
2019-03-26T23:47:36.693Z,19.17
2019-03-26T23:50:08.350Z,24.47
2019-03-26T23:52:36.959Z,21.20
2019-03-26T23:55:07.713Z,19.45
2019-03-26T23:57:37.662Z,20.00
